createdAt,value
2022-10-06T00:06:21.158Z,100
2022-10-06T00:16:23.234Z,100
2022-10-06T00:36:27.245Z,100
2022-10-06T00:46:29.207Z,100
2022-10-06T00:56:31.237Z,100
2022-10-06T01:06:33.226Z,100
2022-10-06T01:16:35.296Z,100
2022-10-06T01:26:37.467Z,100
2022-10-06T01:36:39.746Z,100
2022-10-06T01:37:01.660Z,100
2022-10-06T01:46:49.110Z,100
2022-10-06T01:56:51.637Z,100
2022-10-06T02:06:53.529Z,100
2022-10-06T02:16:55.572Z,100
2022-10-06T02:26:57.747Z,100
2022-10-06T02:37:00.345Z,100
2022-10-06T02:57:04.297Z,100
2022-10-06T03:07:06.458Z,100
2022-10-06T03:27:10.987Z,100
2022-10-06T03:37:13.476Z,100
2022-10-06T03:47:17.342Z,100
2022-10-06T03:57:17.220Z,100
2022-10-06T04:07:18.994Z,100
2022-10-06T04:17:21.124Z,100
2022-10-06T04:27:23.261Z,100
2022-10-06T04:37:25.470Z,100
2022-10-06T04:47:27.606Z,100
2022-10-06T05:07:31.995Z,100
2022-10-06T05:17:34.253Z,100
2022-10-06T05:27:36.098Z,100
2022-10-06T05:37:38.696Z,100
2022-10-06T05:47:41.027Z,100
2022-10-06T05:57:43.441Z,100
2022-10-06T06:07:45.616Z,100
2022-10-06T06:17:48.140Z,100
2022-10-06T06:27:50.294Z,100
2022-10-06T06:37:52.031Z,100
2022-10-06T06:47:54.212Z,100
2022-10-06T06:57:56.379Z,100
2022-10-06T07:07:58.265Z,100
2022-10-06T07:18:00.394Z,100
2022-10-06T07:28:02.359Z,100
2022-10-06T07:38:04.486Z,100
2022-10-06T07:58:09.027Z,100
2022-10-06T08:18:27.500Z,100
2022-10-06T08:28:15.937Z,100
2022-10-06T08:38:18.366Z,100
2022-10-06T08:48:20.644Z,100
2022-10-06T08:58:23.164Z,100
2022-10-06T09:08:25.101Z,100
2022-10-06T09:58:35.638Z,100
2022-10-06T10:08:37.630Z,100
2022-10-06T10:18:40.227Z,100
2022-10-06T10:28:41.993Z,100
2022-10-06T10:48:45.695Z,100
2022-10-06T10:58:47.756Z,100
2022-10-06T11:08:49.653Z,100
2022-10-06T11:18:52.094Z,100
2022-10-06T11:28:54.228Z,100
2022-10-06T11:38:56.355Z,100
2022-10-06T11:48:58.257Z,100
2022-10-06T11:59:00.174Z,100
2022-10-06T12:09:01.914Z,100
2022-10-06T12:19:03.634Z,100
2022-10-06T12:29:05.306Z,100
2022-10-06T12:39:06.982Z,99
2022-10-06T12:49:09.552Z,95
2022-10-06T12:59:11.416Z,93
2022-10-06T13:09:13.373Z,91
2022-10-06T13:19:15.068Z,90
2022-10-06T13:39:19.200Z,86
2022-10-06T13:49:21.050Z,85
2022-10-06T13:59:23.295Z,83
2022-10-06T14:09:25.953Z,81
2022-10-06T14:19:27.826Z,80
2022-10-06T14:29:29.804Z,80
2022-10-06T14:39:32.328Z,79
2022-10-06T14:49:34.116Z,79
2022-10-06T14:59:36.664Z,80
2022-10-06T15:09:38.816Z,80
2022-10-06T15:19:41.451Z,80
2022-10-06T15:29:43.273Z,80
2022-10-06T15:39:45.777Z,79
2022-10-06T15:49:48.288Z,79
2022-10-06T15:59:50.536Z,80
2022-10-06T16:09:52.875Z,81
2022-10-06T16:29:56.351Z,82
2022-10-06T16:50:00.820Z,84
2022-10-06T18:00:15.871Z,100
2022-10-06T18:10:17.847Z,100
2022-10-06T19:30:35.026Z,100
2022-10-06T19:40:36.819Z,100
2022-10-06T19:50:39.416Z,100
2022-10-06T20:30:47.817Z,100
2022-10-06T20:40:49.501Z,100
2022-10-06T20:50:51.327Z,100
2022-10-06T21:00:53.567Z,100
2022-10-06T21:10:55.459Z,100
2022-10-06T21:20:57.307Z,100
2022-10-06T21:30:59.439Z,100
2022-10-06T21:41:01.789Z,100
2022-10-06T21:51:03.503Z,100
2022-10-06T22:01:05.733Z,100
2022-10-06T22:11:07.824Z,100
2022-10-06T22:21:09.554Z,100
2022-10-06T22:41:13.622Z,100
2022-10-06T22:51:15.793Z,100
2022-10-06T23:01:18.050Z,100
2022-10-06T23:11:20.154Z,100
2022-10-06T23:21:22.821Z,100
2022-10-06T23:31:25.201Z,100
2022-10-06T23:41:27.680Z,100
2022-10-06T23:51:29.453Z,100
